臺北終端管制區 - 桃園五邊雷達席

METAR RCTP 140330Z 34007KT 300V020 9999 FEW015 BKN025 BKN050 32/28 Q1008 NOSIG RMK A2979=

站台狀態:Offline
最後更新:2022-08-14 11:30:02